createdAt,value
2018-12-06T00:01:41.821Z,6.20
2018-12-06T00:04:07.563Z,6.40
2018-12-06T00:06:33.291Z,6.57
2018-12-06T00:08:59.008Z,6.10
2018-12-06T00:11:24.744Z,6.00
2018-12-06T00:13:51.081Z,6.03
2018-12-06T00:16:16.911Z,5.53
2018-12-06T00:18:46.630Z,6.93
2018-12-06T00:21:12.368Z,6.03
2018-12-06T00:23:38.082Z,6.37
2018-12-06T00:26:03.919Z,6.47
2018-12-06T00:28:29.633Z,6.20
2018-12-06T00:30:55.355Z,6.33
2018-12-06T00:33:21.089Z,5.57
2018-12-06T00:35:47.019Z,5.70
2018-12-06T00:38:12.827Z,5.87
2018-12-06T00:40:38.545Z,6.20
2018-12-06T00:43:04.259Z,6.80
2018-12-06T00:45:30.188Z,6.23
2018-12-06T00:47:56.019Z,5.80
2018-12-06T00:50:21.735Z,6.17
2018-12-06T00:52:47.456Z,5.63
2018-12-06T00:55:13.395Z,6.00
2018-12-06T00:57:39.115Z,6.00
2018-12-06T01:00:06.743Z,5.17
2018-12-06T01:02:32.575Z,6.15
2018-12-06T01:04:58.393Z,6.30
2018-12-06T01:07:24.225Z,6.07
2018-12-06T01:09:49.939Z,6.07
2018-12-06T01:12:15.670Z,6.20
2018-12-06T01:14:41.486Z,6.50
2018-12-06T01:17:08.409Z,6.43
2018-12-06T01:19:34.335Z,6.62
2018-12-06T01:22:00.456Z,6.47
2018-12-06T01:24:26.392Z,6.10
2018-12-06T01:26:52.250Z,6.27
2018-12-06T01:29:17.978Z,6.40
2018-12-06T01:31:43.706Z,6.60
2018-12-06T01:34:09.419Z,6.10
2018-12-06T01:36:35.137Z,6.23
2018-12-06T01:39:00.867Z,5.70
2018-12-06T01:41:26.682Z,5.97
2018-12-06T01:43:52.396Z,5.80
2018-12-06T01:46:18.108Z,5.90
2018-12-06T01:48:44.140Z,6.33
2018-12-06T01:51:09.859Z,6.40
2018-12-06T01:53:35.791Z,6.20
2018-12-06T01:56:01.511Z,6.37
2018-12-06T01:58:27.249Z,6.33
2018-12-06T02:00:52.952Z,6.63
2018-12-06T02:03:18.680Z,6.03
2018-12-06T02:05:44.403Z,6.80
2018-12-06T02:08:10.120Z,6.33
2018-12-06T02:10:35.934Z,6.70
2018-12-06T02:13:01.667Z,5.90
2018-12-06T02:15:27.392Z,6.00
2018-12-06T02:17:53.155Z,5.97
2018-12-06T02:20:18.974Z,5.97
2018-12-06T02:22:44.711Z,7.07
2018-12-06T02:25:10.547Z,6.83
2018-12-06T02:27:36.291Z,6.50
2018-12-06T02:30:03.524Z,6.60
2018-12-06T02:32:29.247Z,6.33
2018-12-06T02:34:55.079Z,5.70
2018-12-06T02:37:20.801Z,6.20
2018-12-06T02:39:46.632Z,5.70
2018-12-06T02:42:12.352Z,6.33
2018-12-06T02:44:38.396Z,6.13
2018-12-06T02:47:04.127Z,6.20
2018-12-06T02:49:29.950Z,6.37
2018-12-06T02:51:55.675Z,6.13
2018-12-06T02:54:23.236Z,6.07
2018-12-06T02:56:48.967Z,6.13
2018-12-06T02:59:14.698Z,6.50
2018-12-06T03:01:40.623Z,7.23
2018-12-06T03:04:06.459Z,6.80
2018-12-06T03:06:32.195Z,7.53
2018-12-06T03:08:58.135Z,6.77
2018-12-06T03:11:23.869Z,7.00
2018-12-06T03:13:49.726Z,7.30
2018-12-06T03:16:15.440Z,6.40
2018-12-06T03:18:41.154Z,7.20
2018-12-06T03:21:06.874Z,8.07
2018-12-06T03:23:32.599Z,6.97
2018-12-06T03:25:58.343Z,7.17
2018-12-06T03:28:24.061Z,7.30
2018-12-06T03:30:49.788Z,7.43
2018-12-06T03:33:15.615Z,7.17
2018-12-06T03:35:41.458Z,7.90
2018-12-06T03:38:07.185Z,7.90
2018-12-06T03:40:32.905Z,7.40
2018-12-06T03:42:58.727Z,8.37
2018-12-06T03:45:24.450Z,7.73
2018-12-06T03:47:50.266Z,8.30
2018-12-06T03:50:15.995Z,8.83
2018-12-06T03:52:41.699Z,8.37
2018-12-06T03:55:07.442Z,8.40
2018-12-06T03:57:33.267Z,8.90
2018-12-06T03:59:58.996Z,9.27
2018-12-06T04:02:24.710Z,8.50
2018-12-06T04:04:50.443Z,9.47
2018-12-06T04:07:16.152Z,9.20
2018-12-06T04:09:41.862Z,8.37
2018-12-06T04:12:07.683Z,9.70
2018-12-06T04:14:33.504Z,9.57
2018-12-06T04:16:59.338Z,9.67
2018-12-06T04:19:25.254Z,9.13
2018-12-06T04:21:51.079Z,9.53
2018-12-06T04:24:16.891Z,9.33
2018-12-06T04:26:42.715Z,9.57
2018-12-06T04:29:08.438Z,10.37
2018-12-06T04:31:35.079Z,10.20
2018-12-06T04:34:01.007Z,10.25
2018-12-06T04:36:26.715Z,11.23
2018-12-06T04:38:52.423Z,11.43
2018-12-06T04:41:18.164Z,11.27
2018-12-06T04:43:43.879Z,10.90
2018-12-06T04:46:09.594Z,11.00
2018-12-06T04:48:35.307Z,11.30
2018-12-06T04:51:01.143Z,10.90
2018-12-06T04:53:26.859Z,10.20
2018-12-06T04:55:52.570Z,10.07
2018-12-06T04:58:18.288Z,10.07
2018-12-06T05:00:44.111Z,11.17
2018-12-06T05:03:09.846Z,11.17
2018-12-06T05:05:35.580Z,10.17
2018-12-06T05:08:01.296Z,11.43
2018-12-06T05:10:27.023Z,11.63
2018-12-06T05:12:52.752Z,11.90
2018-12-06T05:15:18.561Z,11.00
2018-12-06T05:17:44.290Z,11.27
2018-12-06T05:20:10.106Z,11.60
2018-12-06T05:22:35.927Z,12.47
2018-12-06T05:25:02.255Z,12.70
2018-12-06T05:27:28.116Z,12.30
2018-12-06T05:29:53.827Z,12.03
2018-12-06T05:32:19.642Z,12.53
2018-12-06T05:34:45.346Z,12.37
2018-12-06T05:37:11.054Z,12.67
2018-12-06T05:39:36.766Z,13.13
2018-12-06T05:42:02.587Z,13.47
2018-12-06T05:44:28.287Z,12.40
2018-12-06T05:46:53.995Z,13.20
2018-12-06T05:49:19.721Z,12.40
2018-12-06T05:51:45.432Z,12.40
2018-12-06T05:54:11.267Z,12.57
2018-12-06T05:56:36.993Z,13.50
2018-12-06T05:59:02.928Z,12.93
2018-12-06T06:01:28.750Z,13.23
2018-12-06T06:03:54.519Z,13.10
2018-12-06T06:06:20.241Z,13.30
2018-12-06T06:08:45.968Z,13.93
2018-12-06T06:11:11.787Z,13.80
2018-12-06T06:13:37.627Z,13.93
2018-12-06T06:16:03.358Z,14.43
2018-12-06T06:18:29.190Z,13.73
2018-12-06T06:20:54.903Z,13.97
2018-12-06T06:23:20.627Z,14.50
2018-12-06T06:25:46.565Z,14.73
2018-12-06T06:28:12.286Z,14.17
2018-12-06T06:30:38.004Z,14.00
2018-12-06T06:33:03.723Z,15.20
2018-12-06T06:35:29.440Z,15.43
2018-12-06T06:37:55.159Z,14.67
2018-12-06T06:40:27.791Z,14.73
2018-12-06T06:42:53.517Z,16.30
2018-12-06T06:45:19.351Z,15.20
2018-12-06T06:47:45.066Z,16.87
2018-12-06T06:50:10.787Z,16.53
2018-12-06T06:52:36.515Z,17.83
2018-12-06T06:55:02.748Z,17.50
2018-12-06T06:57:28.458Z,19.63
2018-12-06T06:59:54.190Z,17.83
2018-12-06T07:02:20.004Z,18.23
2018-12-06T07:04:52.667Z,20.10
2018-12-06T07:07:18.381Z,19.13
2018-12-06T07:09:44.103Z,20.33
2018-12-06T07:12:09.829Z,20.50
2018-12-06T07:14:35.576Z,21.00
2018-12-06T07:17:01.325Z,22.20
2018-12-06T07:19:27.147Z,21.17
2018-12-06T07:21:52.980Z,21.80
2018-12-06T07:24:18.710Z,25.23
2018-12-06T07:26:44.588Z,23.03
2018-12-06T07:29:10.480Z,23.57
2018-12-06T07:31:36.338Z,22.30
2018-12-06T07:34:02.281Z,20.57
2018-12-06T07:36:28.111Z,20.70
2018-12-06T07:38:53.839Z,21.63
2018-12-06T07:41:19.597Z,22.80
2018-12-06T07:43:45.313Z,22.70
2018-12-06T07:46:11.034Z,23.00
2018-12-06T07:48:36.860Z,24.03
2018-12-06T07:51:02.705Z,25.17
2018-12-06T07:53:28.423Z,23.53
2018-12-06T07:55:54.255Z,23.97
2018-12-06T07:58:19.966Z,24.07
2018-12-06T08:00:45.752Z,23.50
2018-12-06T08:03:11.476Z,25.83
2018-12-06T08:05:37.211Z,25.20
2018-12-06T08:08:10.179Z,26.10
2018-12-06T08:10:36.030Z,26.00
2018-12-06T08:13:01.742Z,27.60
2018-12-06T08:15:27.469Z,28.27
2018-12-06T08:17:53.194Z,31.63
2018-12-06T08:20:18.914Z,30.73
2018-12-06T08:22:44.642Z,28.80
2018-12-06T08:25:10.367Z,28.37
2018-12-06T08:27:36.199Z,28.77
2018-12-06T08:30:02.750Z,28.33
2018-12-06T08:32:28.589Z,30.10
2018-12-06T08:34:54.423Z,31.33
2018-12-06T08:37:20.159Z,28.90
2018-12-06T08:39:45.867Z,30.07
2018-12-06T08:42:11.600Z,30.27
2018-12-06T08:44:37.315Z,32.10
2018-12-06T08:47:03.143Z,34.03
2018-12-06T08:49:29.067Z,36.40
2018-12-06T08:51:54.900Z,35.03
2018-12-06T08:54:20.712Z,36.40
2018-12-06T08:56:46.536Z,35.90
2018-12-06T08:59:12.376Z,35.53
2018-12-06T09:01:38.208Z,38.80
2018-12-06T09:04:04.032Z,34.50
2018-12-06T09:06:29.878Z,34.57
2018-12-06T09:08:56.632Z,33.07
2018-12-06T09:11:23.851Z,35.67
2018-12-06T09:13:49.634Z,33.13
2018-12-06T09:16:16.357Z,36.27
2018-12-06T09:18:42.326Z,33.93
2018-12-06T09:21:08.040Z,33.73
2018-12-06T09:23:33.863Z,36.30
2018-12-06T09:25:59.698Z,37.80
2018-12-06T09:28:25.643Z,36.63
2018-12-06T09:30:51.368Z,37.63
2018-12-06T09:33:17.099Z,37.07
2018-12-06T09:35:42.920Z,36.47
2018-12-06T09:38:08.764Z,37.80
2018-12-06T09:40:34.600Z,37.17
2018-12-06T09:43:00.336Z,37.00
2018-12-06T09:45:26.146Z,38.30
2018-12-06T09:47:51.872Z,37.43
2018-12-06T09:50:18.410Z,38.03
2018-12-06T09:52:44.336Z,35.40
2018-12-06T09:55:10.045Z,37.33
2018-12-06T09:57:35.775Z,38.80
2018-12-06T10:00:01.633Z,39.17
2018-12-06T10:02:27.470Z,39.20
2018-12-06T10:04:53.209Z,36.57
2018-12-06T10:07:18.923Z,37.80
2018-12-06T10:09:44.653Z,36.20
2018-12-06T10:12:10.571Z,36.80
2018-12-06T10:14:36.445Z,38.13
2018-12-06T10:17:02.274Z,36.90
2018-12-06T10:19:28.003Z,37.87
2018-12-06T10:21:53.819Z,38.50
2018-12-06T10:24:19.552Z,36.63
2018-12-06T10:26:45.263Z,37.57
2018-12-06T10:29:10.984Z,36.83
2018-12-06T10:31:36.691Z,36.53
2018-12-06T10:34:02.435Z,35.87
2018-12-06T10:36:28.263Z,37.70
2018-12-06T10:38:54.101Z,38.80
2018-12-06T10:41:19.936Z,41.30
2018-12-06T10:43:45.678Z,41.40
2018-12-06T10:46:11.398Z,42.33
2018-12-06T10:48:37.114Z,42.30
2018-12-06T10:51:15.050Z,41.70
2018-12-06T10:53:40.770Z,44.57
2018-12-06T10:56:06.499Z,42.00
2018-12-06T10:58:32.476Z,43.70
2018-12-06T11:01:07.764Z,42.70
2018-12-06T11:03:36.030Z,44.47
2018-12-06T11:06:01.764Z,44.60
2018-12-06T11:08:28.609Z,45.80
2018-12-06T11:10:54.345Z,43.77
2018-12-06T11:13:20.115Z,42.43
2018-12-06T11:15:45.951Z,46.07
2018-12-06T11:18:11.678Z,43.20
2018-12-06T11:20:37.882Z,47.27
2018-12-06T11:23:03.626Z,50.77
2018-12-06T11:25:29.471Z,45.60
2018-12-06T11:27:55.299Z,50.03
2018-12-06T11:30:21.028Z,49.93
2018-12-06T11:32:46.755Z,47.23
2018-12-06T11:35:12.704Z,47.27
2018-12-06T11:37:38.543Z,47.97
2018-12-06T11:40:04.472Z,47.20
2018-12-06T11:42:30.203Z,47.47
2018-12-06T11:44:55.924Z,49.40
2018-12-06T11:47:21.755Z,44.13
2018-12-06T11:49:47.587Z,43.73
2018-12-06T11:52:13.429Z,43.97
2018-12-06T11:54:39.145Z,45.93
2018-12-06T11:57:04.881Z,44.17
2018-12-06T11:59:30.708Z,48.43
2018-12-06T12:01:56.535Z,47.43
2018-12-06T12:04:22.360Z,48.83
2018-12-06T12:06:48.243Z,47.43
2018-12-06T12:09:14.027Z,53.33
2018-12-06T12:11:39.747Z,51.13
2018-12-06T12:14:05.572Z,45.17
2018-12-06T12:16:31.477Z,51.37
2018-12-06T12:18:57.333Z,45.60
2018-12-06T12:21:23.043Z,47.03
2018-12-06T12:23:48.765Z,44.67
2018-12-06T12:26:14.495Z,47.17
2018-12-06T12:28:40.331Z,45.83
2018-12-06T12:31:06.356Z,42.10
2018-12-06T12:33:32.183Z,44.20
2018-12-06T12:35:57.903Z,41.37
2018-12-06T12:38:23.745Z,40.17
2018-12-06T12:40:49.459Z,43.90
2018-12-06T12:43:15.191Z,41.90
2018-12-06T12:45:41.011Z,40.87
2018-12-06T12:48:06.727Z,44.60
2018-12-06T12:50:32.455Z,45.47
2018-12-06T12:52:58.279Z,44.00
2018-12-06T12:55:23.987Z,49.13
2018-12-06T12:57:49.807Z,43.03
2018-12-06T13:00:15.636Z,44.70
2018-12-06T13:02:41.456Z,43.90
2018-12-06T13:05:07.322Z,43.73
2018-12-06T13:07:33.079Z,42.53
2018-12-06T13:09:58.806Z,42.80
2018-12-06T13:12:24.632Z,41.97
2018-12-06T13:14:50.475Z,43.67
2018-12-06T13:17:16.308Z,40.07
2018-12-06T13:19:42.042Z,41.40
2018-12-06T13:22:07.779Z,42.53
2018-12-06T13:24:33.527Z,36.93
2018-12-06T13:26:59.282Z,37.83
2018-12-06T13:29:25.006Z,42.17
2018-12-06T13:31:50.740Z,38.03
2018-12-06T13:34:16.663Z,40.03
2018-12-06T13:36:42.443Z,38.10
2018-12-06T13:39:08.256Z,38.87
2018-12-06T13:41:34.195Z,40.87
2018-12-06T13:43:59.926Z,36.50
2018-12-06T13:46:25.772Z,37.87
2018-12-06T13:48:51.580Z,39.20
2018-12-06T13:51:17.311Z,37.83
2018-12-06T13:53:43.039Z,42.87
2018-12-06T13:56:09.054Z,41.33
2018-12-06T13:58:34.881Z,41.83
2018-12-06T14:01:00.838Z,45.07
2018-12-06T14:03:26.977Z,43.27
2018-12-06T14:08:25.311Z,48.60
2018-12-06T14:10:51.190Z,47.67
2018-12-06T14:13:23.454Z,49.13
2018-12-06T14:15:44.733Z,50.27
2018-12-06T14:18:10.463Z,52.07
2018-12-06T14:20:36.199Z,54.47
2018-12-06T14:23:02.014Z,52.83
2018-12-06T14:25:27.792Z,51.90
2018-12-06T14:27:53.516Z,53.20
2018-12-06T14:30:19.359Z,55.73
2018-12-06T14:32:45.112Z,50.57
2018-12-06T14:35:10.968Z,51.17
2018-12-06T14:37:37.782Z,53.33
2018-12-06T14:40:05.228Z,55.30
2018-12-06T14:42:30.963Z,53.67
2018-12-06T14:44:56.703Z,53.83
2018-12-06T14:47:22.476Z,52.13
2018-12-06T14:49:48.300Z,48.20
2018-12-06T14:52:14.028Z,46.07
2018-12-06T14:54:39.775Z,54.60
2018-12-06T14:57:05.632Z,48.83
2018-12-06T14:59:31.365Z,55.57
2018-12-06T15:01:57.107Z,45.60
2018-12-06T15:04:22.929Z,45.13
2018-12-06T15:06:48.767Z,43.70
2018-12-06T15:09:14.496Z,42.87
2018-12-06T15:11:40.344Z,43.40
2018-12-06T15:14:06.176Z,40.17
2018-12-06T15:16:32.023Z,41.10
2018-12-06T15:18:57.758Z,38.07
2018-12-06T15:21:23.492Z,37.57
2018-12-06T15:23:49.329Z,34.73
2018-12-06T15:26:15.057Z,35.63
2018-12-06T15:28:40.812Z,36.23
2018-12-06T15:31:06.543Z,34.50
2018-12-06T15:33:32.294Z,31.90
2018-12-06T15:35:58.121Z,33.20
2018-12-06T15:38:23.971Z,32.40
2018-12-06T15:40:49.696Z,36.13
2018-12-06T15:43:15.440Z,33.43
2018-12-06T15:45:41.175Z,33.10
2018-12-06T15:48:07.013Z,31.23
2018-12-06T15:50:32.957Z,35.77
2018-12-06T15:52:58.799Z,34.57
2018-12-06T15:55:24.635Z,31.73
2018-12-06T15:57:50.471Z,32.00
2018-12-06T16:00:16.299Z,29.47
2018-12-06T16:02:42.144Z,31.40
2018-12-06T16:05:07.958Z,32.23
2018-12-06T16:07:33.711Z,30.20
2018-12-06T16:09:59.654Z,30.57
2018-12-06T16:12:25.367Z,28.23
2018-12-06T16:14:51.224Z,29.43
2018-12-06T16:17:16.941Z,26.27
2018-12-06T16:19:42.687Z,28.73
2018-12-06T16:22:08.516Z,26.90
2018-12-06T16:24:34.267Z,27.13
2018-12-06T16:27:00.005Z,26.67
2018-12-06T16:29:25.739Z,26.80
2018-12-06T16:31:51.460Z,26.77
2018-12-06T16:34:17.193Z,26.30
2018-12-06T16:36:42.939Z,25.83
2018-12-06T16:39:08.800Z,25.23
2018-12-06T16:41:34.626Z,22.73
2018-12-06T16:44:00.481Z,22.30
2018-12-06T16:46:26.216Z,21.67
2018-12-06T16:48:52.079Z,22.20
2018-12-06T16:51:17.915Z,23.77
2018-12-06T16:53:43.759Z,23.03
2018-12-06T16:56:09.700Z,24.07
2018-12-06T16:58:35.529Z,21.73
2018-12-06T17:01:01.453Z,21.37
2018-12-06T17:03:27.267Z,24.57
2018-12-06T17:05:53.003Z,24.43
2018-12-06T17:08:18.731Z,24.40
2018-12-06T17:10:44.480Z,25.03
2018-12-06T17:13:10.216Z,25.57
2018-12-06T17:15:36.060Z,26.97
2018-12-06T17:18:01.808Z,27.00
2018-12-06T17:20:27.546Z,27.83
2018-12-06T17:22:53.289Z,27.60
2018-12-06T17:25:19.151Z,28.80
2018-12-06T17:27:44.874Z,30.03
2018-12-06T17:30:11.034Z,28.50
2018-12-06T17:32:36.875Z,28.57
2018-12-06T17:35:03.425Z,28.63
2018-12-06T17:37:29.273Z,27.63
2018-12-06T17:39:55.022Z,27.17
2018-12-06T17:42:20.876Z,30.13
2018-12-06T17:44:46.716Z,24.53
2018-12-06T17:47:12.472Z,25.97
2018-12-06T17:49:38.243Z,26.07
2018-12-06T17:52:03.997Z,30.80
2018-12-06T17:54:29.744Z,29.27
2018-12-06T17:56:55.588Z,30.60
2018-12-06T17:59:21.512Z,29.53
2018-12-06T18:01:47.249Z,30.90
2018-12-06T18:04:13.316Z,28.47
2018-12-06T18:06:39.164Z,27.63
2018-12-06T18:09:05.711Z,31.30
2018-12-06T18:11:31.466Z,30.03
2018-12-06T18:13:57.202Z,31.77
2018-12-06T18:16:23.063Z,30.47
2018-12-06T18:18:48.895Z,28.87
2018-12-06T18:21:14.939Z,30.63
2018-12-06T18:23:40.673Z,30.23
2018-12-06T18:26:06.523Z,28.37
2018-12-06T18:28:32.364Z,27.53
2018-12-06T18:30:58.195Z,29.33
2018-12-06T18:33:23.939Z,30.63
2018-12-06T18:35:49.772Z,27.40
2018-12-06T18:38:15.511Z,25.47
2018-12-06T18:40:41.240Z,27.10
2018-12-06T18:43:06.983Z,26.33
2018-12-06T18:45:32.711Z,26.80
2018-12-06T18:47:58.531Z,25.97
2018-12-06T18:50:24.260Z,26.23
2018-12-06T18:52:50.091Z,25.60
2018-12-06T18:55:15.827Z,24.87
2018-12-06T18:57:41.666Z,26.20
2018-12-06T19:00:08.197Z,26.97
2018-12-06T19:02:34.035Z,25.03
2018-12-06T19:04:59.768Z,27.90
2018-12-06T19:07:25.599Z,24.33
2018-12-06T19:09:51.312Z,27.20
2018-12-06T19:12:17.139Z,26.33
2018-12-06T19:14:42.992Z,26.73
2018-12-06T19:17:40.724Z,27.73
2018-12-06T19:20:06.671Z,26.50
2018-12-06T19:22:32.502Z,29.07
2018-12-06T19:24:58.242Z,28.20
2018-12-06T19:27:24.078Z,29.93
2018-12-06T19:29:49.917Z,30.53
2018-12-06T19:32:15.651Z,30.00
2018-12-06T19:34:41.812Z,30.73
2018-12-06T19:37:07.770Z,29.43
2018-12-06T19:39:33.606Z,28.57
2018-12-06T19:41:59.434Z,28.27
2018-12-06T19:44:25.173Z,27.50
2018-12-06T19:46:50.999Z,25.03
2018-12-06T19:49:16.728Z,25.20
2018-12-06T19:51:42.462Z,23.87
2018-12-06T19:54:08.216Z,21.93
2018-12-06T19:56:33.943Z,23.43
2018-12-06T19:59:06.757Z,22.00
2018-12-06T20:01:32.601Z,22.63
2018-12-06T20:03:58.447Z,23.27
2018-12-06T20:06:24.274Z,22.37
2018-12-06T20:08:50.008Z,24.10
2018-12-06T20:11:15.838Z,25.77
2018-12-06T20:13:41.663Z,24.50
2018-12-06T20:16:07.482Z,23.40
2018-12-06T20:18:33.211Z,25.33
2018-12-06T20:20:58.956Z,25.37
2018-12-06T20:23:24.692Z,25.20
2018-12-06T20:25:50.447Z,22.13
2018-12-06T20:28:16.179Z,22.37
2018-12-06T20:30:41.903Z,22.93
2018-12-06T20:33:07.705Z,20.67
2018-12-06T20:35:33.431Z,21.43
2018-12-06T20:37:59.154Z,20.13
2018-12-06T20:40:24.883Z,21.00
2018-12-06T20:42:50.617Z,21.00
2018-12-06T20:45:16.455Z,17.47
2018-12-06T20:47:42.194Z,17.90
2018-12-06T20:50:08.028Z,17.40
2018-12-06T20:52:33.759Z,18.70
2018-12-06T20:54:59.496Z,19.80
2018-12-06T20:57:25.220Z,19.23
2018-12-06T20:59:50.947Z,18.50
2018-12-06T21:02:16.675Z,19.13
2018-12-06T21:04:42.429Z,19.63
2018-12-06T21:07:08.243Z,19.93
2018-12-06T21:09:33.971Z,20.63
2018-12-06T21:11:59.798Z,20.60
2018-12-06T21:14:25.534Z,20.63
2018-12-06T21:16:51.262Z,20.53
2018-12-06T21:19:17.098Z,22.53
2018-12-06T21:21:42.820Z,22.20
2018-12-06T21:24:08.544Z,23.67
2018-12-06T21:26:34.471Z,23.70
2018-12-06T21:29:00.244Z,25.03
2018-12-06T21:31:26.091Z,26.63
2018-12-06T21:33:51.920Z,26.53
2018-12-06T21:36:17.679Z,30.40
2018-12-06T21:38:43.399Z,28.20
2018-12-06T21:41:09.133Z,31.03
2018-12-06T21:43:34.959Z,27.70
2018-12-06T21:46:00.697Z,33.50
2018-12-06T21:48:26.440Z,30.17
2018-12-06T21:50:52.172Z,28.53
2018-12-06T21:53:17.886Z,27.83
2018-12-06T21:55:43.641Z,29.53
2018-12-06T21:58:09.376Z,29.77
2018-12-06T22:00:35.111Z,31.50
2018-12-06T22:03:00.942Z,26.23
2018-12-06T22:05:26.769Z,28.97
2018-12-06T22:07:52.508Z,25.03
2018-12-06T22:10:18.232Z,24.53
2018-12-06T22:12:44.358Z,25.60
2018-12-06T22:15:10.201Z,28.73
2018-12-06T22:17:36.042Z,27.33
2018-12-06T22:20:02.270Z,27.70
2018-12-06T22:22:28.055Z,26.73
2018-12-06T22:24:53.884Z,27.70
2018-12-06T22:27:19.622Z,26.50
2018-12-06T22:29:52.372Z,25.87
2018-12-06T22:32:18.111Z,25.60
2018-12-06T22:34:44.037Z,25.57
2018-12-06T22:37:09.768Z,24.17
2018-12-06T22:39:35.599Z,21.77
2018-12-06T22:42:01.370Z,22.83
2018-12-06T22:44:27.115Z,21.00
2018-12-06T22:46:52.878Z,21.70
2018-12-06T22:49:19.065Z,23.50
2018-12-06T22:51:44.803Z,20.93
2018-12-06T22:54:10.647Z,20.97
2018-12-06T22:56:36.362Z,19.90
2018-12-06T22:59:09.155Z,19.63
2018-12-06T23:01:38.997Z,20.20
2018-12-06T23:04:04.841Z,20.67
2018-12-06T23:06:30.771Z,20.77
2018-12-06T23:08:56.599Z,20.10
2018-12-06T23:11:22.419Z,19.40
2018-12-06T23:13:48.161Z,18.23
2018-12-06T23:16:13.978Z,19.50
2018-12-06T23:18:39.804Z,19.27
2018-12-06T23:21:05.536Z,18.57
2018-12-06T23:23:31.275Z,17.50
2018-12-06T23:25:57.683Z,17.47
2018-12-06T23:28:23.403Z,15.80
2018-12-06T23:30:49.133Z,16.17
2018-12-06T23:33:14.856Z,17.10
2018-12-06T23:35:40.592Z,14.70
2018-12-06T23:38:06.333Z,15.70
2018-12-06T23:40:32.071Z,15.50
2018-12-06T23:42:57.890Z,15.67
2018-12-06T23:45:23.630Z,14.10
2018-12-06T23:47:49.463Z,16.33
2018-12-06T23:50:15.196Z,15.87
2018-12-06T23:52:41.035Z,14.50
2018-12-06T23:55:06.984Z,12.43
2018-12-06T23:57:32.709Z,11.33
2018-12-06T23:59:59.218Z,13.03
